Time;durP1;ratioP1;P1;durP2;ratioP2;P2;SDS_P1;SDS_P2;PMS_P1;PMS_P2;Temp;Humidity;BMP_temperature;BMP_pressure;BME280_temperature;BME280_humidity;BME280_pressure;Samples;Min_cycle;Max_cycle;Signal;HPM_P1;HPM_P2
2022/04/03 00:00:31;;;;;;;19.33;13.67;;;-2.90;99.90;-2.60;93814.00;;;;7394761;19;20123;-75
2022/04/03 00:03:02;;;;;;;21.87;13.23;;;-2.90;99.90;-2.50;93818.00;;;;7393625;19;20127;-75
2022/04/03 00:05:35;;;;;;;19.10;13.57;;;-2.90;99.90;-2.50;93857.00;;;;7393209;19;20138;-75
2022/04/03 00:08:17;;;;;;;19.17;13.40;;;-2.90;99.90;-2.60;93816.00;;;;7392771;19;20497;-75
2022/04/03 00:10:46;;;;;;;19.00;12.97;;;-2.90;99.90;-2.50;93838.00;;;;7393976;19;20585;-74
2022/04/03 00:13:20;;;;;;;19.13;13.23;;;-2.90;99.90;-2.50;93818.00;;;;7392811;19;20135;-75
2022/04/03 00:15:48;;;;;;;19.10;12.53;;;-2.90;99.90;-3.40;93814.00;;;;7395819;19;20163;-75
2022/04/03 00:18:16;;;;;;;21.03;13.93;;;-3.00;99.90;-2.50;93840.00;;;;7395277;19;20131;-76
2022/04/03 00:20:51;;;;;;;19.10;12.73;;;-2.90;99.90;-2.60;93875.00;;;;7396187;19;21013;-75
2022/04/03 00:23:20;;;;;;;16.30;12.20;;;-2.90;99.90;-2.60;93837.00;;;;7395690;19;20138;-75
2022/04/03 00:25:48;;;;;;;20.20;13.23;;;-2.90;99.90;-2.60;93863.00;;;;7395968;19;20629;-75
2022/04/03 00:28:23;;;;;;;19.27;14.33;;;-3.00;99.90;-2.70;93839.00;;;;7395357;19;20148;-76
2022/04/03 00:30:50;;;;;;;17.70;13.10;;;-2.90;99.90;-2.70;93832.00;;;;7396096;19;20150;-76
2022/04/03 00:33:18;;;;;;;22.50;12.50;;;-2.90;99.90;-2.60;93834.00;;;;7396153;19;20597;-76
2022/04/03 00:35:53;;;;;;;19.37;12.43;;;-2.90;99.90;-2.60;93872.00;;;;7396614;19;20488;-75
2022/04/03 00:38:20;;;;;;;19.10;13.10;;;-2.90;99.90;-2.70;93833.00;;;;7395945;19;20482;-75
2022/04/03 00:40:49;;;;;;;21.20;12.77;;;-2.90;99.90;-2.70;93877.00;;;;7395171;19;20132;-76
2022/04/03 00:43:23;;;;;;;19.03;13.10;;;-2.90;99.90;-2.60;93860.00;;;;7395163;19;20146;-76
2022/04/03 00:45:52;;;;;;;18.63;13.60;;;-2.90;99.90;-2.60;93843.00;;;;7395729;19;20130;-75
2022/04/03 00:48:20;;;;;;;21.77;13.70;;;-2.90;99.90;-2.50;93850.00;;;;7394150;19;20601;-75
2022/04/03 00:50:54;;;;;;;20.43;13.13;;;-2.90;99.90;-2.50;93871.00;;;;7394275;19;20170;-76
2022/04/03 00:53:21;;;;;;;21.27;14.13;;;-2.90;99.90;-2.40;93840.00;;;;7394888;19;20142;-75
2022/04/03 00:55:50;;;;;;;19.00;12.90;;;-2.90;88.10;-2.60;93873.00;;;;7395767;19;20143;-75
2022/04/03 00:58:25;;;;;;;17.60;13.53;;;-2.90;71.30;-2.70;93838.00;;;;7392032;19;20140;-75
2022/04/03 01:00:52;;;;;;;20.93;14.30;;;-2.90;66.20;-2.30;93881.00;;;;7392259;19;20139;-75
2022/04/03 01:03:19;;;;;;;20.47;14.30;;;-3.00;55.10;-2.50;93860.00;;;;7394493;19;20616;-75
2022/04/03 01:05:53;;;;;;;22.00;13.73;;;-2.90;66.00;-2.50;93850.00;;;;7394592;19;20597;-75
2022/04/03 01:08:27;;;;;;;20.63;14.40;;;-2.90;30.90;-2.70;93853.00;;;;7393689;19;20173;-75
2022/04/03 01:11:01;;;;;;;20.10;14.37;;;-3.00;18.40;-2.60;93862.00;;;;7396143;19;20611;-76
2022/04/03 01:13:28;;;;;;;23.97;14.33;;;-3.00;11.30;-2.70;93843.00;;;;7398617;19;20146;-75
2022/04/03 01:16:03;;;;;;;22.63;14.63;;;-3.00;11.50;-2.80;93845.00;;;;7393362;19;20130;-75
2022/04/03 01:18:37;;;;;;;25.00;13.70;;;-3.00;11.20;-2.60;93869.00;;;;7393319;19;20204;-75
2022/04/03 01:21:06;;;;;;;20.67;14.17;;;-2.90;9.20;-2.60;93887.00;;;;7394482;19;20136;-76
2022/04/03 01:23:33;;;;;;;21.87;15.10;;;-2.90;1.00;-2.50;93879.00;;;;7396270;19;20593;-75
2022/04/03 01:26:15;;;;;;;22.93;15.07;;;-3.00;1.00;-2.60;93866.00;;;;7401744;19;20172;-75
2022/04/03 01:28:43;;;;;;;20.87;14.13;;;-2.90;1.00;-2.60;93877.00;;;;7399659;19;20201;-75
2022/04/03 01:31:18;;;;;;;20.07;13.57;;;-3.00;1.00;-2.60;93815.00;;;;7401023;19;20640;-76
2022/04/03 01:33:46;;;;;;;21.50;14.20;;;-3.00;1.10;-2.80;93869.00;;;;7402350;19;20143;-76
2022/04/03 01:36:14;;;;;;;23.43;14.43;;;-2.90;8.80;-2.60;93830.00;;;;7402848;19;20135;-76
2022/04/03 01:38:48;;;;;;;21.00;14.27;;;-2.90;1.00;-2.60;93869.00;;;;7402437;19;20448;-76
2022/04/03 01:41:15;;;;;;;21.90;13.43;;;-3.00;1.00;-2.70;93889.00;;;;7401367;19;20134;-75
2022/04/03 01:43:42;;;;;;;20.47;13.37;;;-3.00;1.00;-2.70;93876.00;;;;7401411;19;20599;-75
2022/04/03 01:46:16;;;;;;;18.83;13.37;;;-3.00;1.00;-2.60;93856.00;;;;7403002;19;20153;-76
2022/04/03 01:48:43;;;;;;;22.63;14.20;;;-3.00;1.00;-2.50;93854.00;;;;7399117;19;20138;-75
2022/04/03 01:51:10;;;;;;;20.07;15.23;;;-3.00;1.00;-2.60;93856.00;;;;7401075;19;20134;-75
2022/04/03 01:53:44;;;;;;;27.50;14.57;;;-3.00;1.00;-2.50;93757.00;;;;7402194;19;20143;-75
2022/04/03 01:56:14;;;;;;;20.23;14.17;;;-3.00;1.00;-2.70;93869.00;;;;7403105;19;20574;-77
2022/04/03 01:58:42;;;;;;;21.27;14.10;;;-2.90;1.00;-2.70;93746.00;;;;7402110;19;20147;-76
2022/04/03 02:01:16;;;;;;;25.47;15.67;;;-3.00;1.00;-2.80;93854.00;;;;7401117;19;20483;-77
2022/04/03 02:03:45;;;;;;;20.77;14.90;;;-3.00;1.00;-2.80;93868.00;;;;7400846;19;20143;-77
2022/04/03 02:06:15;;;;;;;22.47;15.20;;;-3.00;1.00;-2.70;93881.00;;;;7401845;19;20129;-75
2022/04/03 02:08:57;;;;;;;27.77;15.43;;;-3.00;1.00;-2.60;93885.00;;;;7399142;19;20658;-76
2022/04/03 02:11:24;;;;;;;24.40;14.83;;;-3.00;1.00;-2.70;93846.00;;;;7402449;19;20147;-77
2022/04/03 02:13:58;;;;;;;23.70;13.93;;;-3.00;1.00;-2.70;93854.00;;;;7400844;19;20160;-75
2022/04/03 02:16:26;;;;;;;24.30;14.90;;;-3.00;1.00;-2.70;93828.00;;;;7398739;19;20150;-75
2022/04/03 02:18:54;;;;;;;21.13;15.70;;;-3.00;1.00;-2.70;93856.00;;;;7399398;19;20599;-75
2022/04/03 02:21:28;;;;;;;21.97;15.20;;;-3.00;1.00;-2.70;93873.00;;;;7398940;19;20143;-75
2022/04/03 02:23:55;;;;;;;22.70;15.03;;;-3.00;1.00;-2.60;93854.00;;;;7398736;19;20144;-75
2022/04/03 02:26:22;;;;;;;23.27;15.20;;;-3.00;1.00;-2.80;93882.00;;;;7398647;19;20605;-75
2022/04/03 02:28:57;;;;;;;21.50;15.13;;;-3.00;1.00;-2.80;93832.00;;;;7397595;19;20130;-75
2022/04/03 02:31:24;;;;;;;20.83;14.53;;;-3.00;1.00;-2.70;93865.00;;;;7399401;19;20141;-76
2022/04/03 02:33:51;;;;;;;26.33;14.17;;;-3.00;1.00;-2.70;93875.00;;;;7399059;19;20142;-76
2022/04/03 02:36:25;;;;;;;22.63;14.80;;;-3.00;1.00;-2.70;93847.00;;;;7400467;19;20126;-75
2022/04/03 02:38:52;;;;;;;22.90;14.67;;;-3.10;1.00;-3.80;93857.00;;;;7397923;19;20480;-76
2022/04/03 02:41:19;;;;;;;26.13;15.17;;;-3.10;1.00;-2.60;93847.00;;;;7400229;19;20132;-76
2022/04/03 02:43:53;;;;;;;21.57;14.53;;;-3.10;1.00;-2.70;93854.00;;;;7398665;19;20147;-76
2022/04/03 02:46:20;;;;;;;23.63;14.77;;;-3.10;1.00;-2.70;93886.00;;;;7398267;19;20157;-76
2022/04/03 02:48:47;;;;;;;22.97;15.30;;;-3.10;1.00;-2.70;93864.00;;;;7396442;19;20172;-75
2022/04/03 02:51:21;;;;;;;22.07;14.97;;;-3.10;1.00;-2.80;93866.00;;;;7399599;19;20122;-76
2022/04/03 02:53:48;;;;;;;21.90;15.10;;;-3.10;1.00;-2.70;93898.00;;;;7398092;19;20607;-75
2022/04/03 02:56:15;;;;;;;22.43;14.33;;;-3.10;1.00;-2.80;93871.00;;;;7397443;19;20487;-76
2022/04/03 02:58:49;;;;;;;20.27;14.07;;;-3.10;1.00;-2.80;93851.00;;;;7397232;19;20151;-75
2022/04/03 03:01:16;;;;;;;25.43;13.87;;;-3.10;1.00;-2.70;93868.00;;;;7397706;19;20142;-76
2022/04/03 03:03:43;;;;;;;21.27;14.03;;;-3.20;1.00;-2.90;93911.00;;;;7398269;19;20126;-75
2022/04/03 03:06:19;;;;;;;21.17;13.13;;;-3.20;1.00;-2.70;93871.00;;;;7399010;19;20127;-76
2022/04/03 03:08:53;;;;;;;17.80;12.27;;;-3.20;1.00;-3.00;93894.00;;;;7395823;19;20182;-77
2022/04/03 03:11:28;;;;;;;18.63;12.47;;;-3.20;1.00;-3.00;93831.00;;;;7400250;19;20131;-76
2022/04/03 03:13:55;;;;;;;22.70;13.73;;;-3.20;1.00;-3.00;93867.00;;;;7398752;19;20135;-76
2022/04/03 03:16:23;;;;;;;18.97;12.63;;;-3.20;1.00;-2.90;93829.00;;;;7397586;19;20199;-75
2022/04/03 03:18:57;;;;;;;20.20;13.17;;;-3.20;1.00;-3.00;93853.00;;;;7397056;19;20127;-75
2022/04/03 03:21:24;;;;;;;22.77;13.20;;;-3.20;1.00;-3.20;93843.00;;;;7397731;19;20631;-75
2022/04/03 03:23:52;;;;;;;20.67;13.17;;;-3.20;1.00;-2.90;93840.00;;;;7398244;19;20124;-76
2022/04/03 03:26:26;;;;;;;18.20;12.67;;;-3.20;1.00;-2.90;93857.00;;;;7397630;19;20462;-76
2022/04/03 03:28:53;;;;;;;20.73;13.57;;;-3.20;1.00;-2.80;93868.00;;;;7396637;19;20122;-75
2022/04/03 03:31:20;;;;;;;18.60;13.03;;;-3.20;1.00;-2.90;93853.00;;;;7396662;19;20504;-75
2022/04/03 03:33:54;;;;;;;19.20;13.53;;;-3.20;1.00;-2.80;93829.00;;;;7395775;19;20189;-75
2022/04/03 03:36:21;;;;;;;28.57;14.10;;;-3.20;1.00;-2.80;93897.00;;;;7397152;19;20784;-76
2022/04/03 03:38:50;;;;;;;22.30;14.20;;;-3.20;1.00;-2.70;93885.00;;;;7399380;19;20122;-76
2022/04/03 03:41:25;;;;;;;21.40;14.20;;;-3.20;1.00;-2.90;93839.00;;;;7396821;19;20736;-76
2022/04/03 03:43:52;;;;;;;24.03;13.97;;;-3.20;1.00;-2.80;93902.00;;;;7397363;19;20140;-76
2022/04/03 03:46:19;;;;;;;24.37;14.93;;;-3.20;1.00;-2.70;93889.00;;;;7397168;19;20491;-76
2022/04/03 03:48:53;;;;;;;20.03;14.40;;;-3.20;1.00;-2.80;93896.00;;;;7397321;19;20497;-77
2022/04/03 03:51:20;;;;;;;21.83;13.73;;;-3.20;1.00;-2.80;93849.00;;;;7398257;19;20127;-76
2022/04/03 03:53:47;;;;;;;19.33;14.20;;;-3.20;1.00;-2.90;93888.00;;;;7398036;19;20206;-76
2022/04/03 03:56:21;;;;;;;21.53;14.37;;;-3.20;1.00;-2.90;93892.00;;;;7398534;19;20147;-76
2022/04/03 03:58:51;;;;;;;19.43;14.03;;;-3.20;1.00;-2.90;93878.00;;;;7397815;19;20140;-76
2022/04/03 04:01:21;;;;;;;21.40;14.70;;;-3.20;1.00;-3.00;93870.00;;;;7397858;19;20202;-76
2022/04/03 04:03:55;;;;;;;22.10;14.27;;;-3.20;1.00;-3.10;93912.00;;;;7396910;19;20166;-76
2022/04/03 04:06:22;;;;;;;21.47;14.90;;;-3.20;1.00;-3.00;93895.00;;;;7397071;19;20143;-75
2022/04/03 04:08:50;;;;;;;22.63;14.00;;;-3.20;1.00;-2.80;93920.00;;;;7394934;19;20241;-75
2022/04/03 04:11:24;;;;;;;23.27;14.50;;;-3.20;1.00;-2.70;93826.00;;;;7397609;19;20132;-75
2022/04/03 04:13:51;;;;;;;21.93;14.50;;;-3.20;1.00;-2.80;93848.00;;;;7395848;19;20473;-75
2022/04/03 04:16:18;;;;;;;21.97;15.03;;;-3.20;1.00;-2.90;93853.00;;;;7394704;19;20240;-75
2022/04/03 04:18:52;;;;;;;21.00;14.90;;;-3.20;1.00;-3.00;93925.00;;;;7396091;19;20123;-75
2022/04/03 04:21:19;;;;;;;20.40;14.83;;;-3.20;1.00;-3.00;93855.00;;;;7394981;19;20122;-75
2022/04/03 04:23:46;;;;;;;28.17;15.33;;;-3.20;1.00;-2.80;93903.00;;;;7394683;19;20592;-75
2022/04/03 04:26:20;;;;;;;20.20;13.97;;;-3.20;1.00;-2.80;93929.00;;;;7395404;19;20160;-74
2022/04/03 04:28:48;;;;;;;22.43;14.53;;;-3.30;1.00;-2.90;93937.00;;;;7394222;19;20139;-76
2022/04/03 04:31:15;;;;;;;20.83;14.17;;;-3.30;1.00;-2.90;93853.00;;;;7396219;19;20141;-75
2022/04/03 04:33:49;;;;;;;20.67;13.87;;;-3.30;1.00;-3.00;93857.00;;;;7394955;19;20137;-75
2022/04/03 04:36:16;;;;;;;23.83;15.03;;;-3.30;1.00;-3.10;93895.00;;;;7394398;19;20121;-75
2022/04/03 04:38:43;;;;;;;23.47;15.30;;;-3.30;1.00;-3.00;93866.00;;;;7394426;19;20136;-76
2022/04/03 04:41:17;;;;;;;21.07;13.97;;;-3.30;1.00;-2.90;93891.00;;;;7394951;19;20133;-75
2022/04/03 04:43:44;;;;;;;24.13;14.33;;;-3.40;1.00;-3.00;93938.00;;;;7395746;19;20157;-75
2022/04/03 04:46:11;;;;;;;21.63;13.93;;;-3.30;1.00;-3.10;93886.00;;;;7393669;19;20150;-75
2022/04/03 04:48:45;;;;;;;22.73;15.17;;;-3.30;1.00;-3.10;93876.00;;;;7393942;19;20592;-75
2022/04/03 04:51:12;;;;;;;19.00;13.57;;;-3.30;1.00;-3.20;93920.00;;;;7394053;19;20141;-75
2022/04/03 04:53:39;;;;;;;20.27;13.97;;;-3.30;1.00;-3.20;93904.00;;;;7394070;19;20501;-75
2022/04/03 04:56:13;;;;;;;23.50;14.63;;;-3.30;1.00;-3.10;93875.00;;;;7394624;19;20611;-75
2022/04/03 04:58:40;;;;;;;23.43;14.53;;;-3.30;1.00;-3.10;93907.00;;;;7391604;19;20585;-75
2022/04/03 05:01:07;;;;;;;25.60;14.67;;;-3.30;1.00;-3.10;93947.00;;;;7393549;19;20133;-75
2022/04/03 05:03:41;;;;;;;20.93;14.53;;;-3.30;1.00;-3.00;93939.00;;;;7393310;19;20157;-75
2022/04/03 05:06:12;;;;;;;24.37;14.70;;;-3.30;1.00;-3.20;93905.00;;;;7394542;19;20476;-76
2022/04/03 05:08:39;;;;;;;20.43;14.20;;;-3.30;1.00;-2.90;93922.00;;;;7392429;19;20181;-75
2022/04/03 05:11:20;;;;;;;22.10;14.53;;;-3.30;1.00;-3.00;93924.00;;;;7394100;19;20179;-75
2022/04/03 05:13:48;;;;;;;26.37;14.57;;;-3.30;1.00;-3.00;93908.00;;;;7393406;19;20501;-75
2022/04/03 05:16:22;;;;;;;27.13;14.87;;;-3.30;1.00;-2.90;93953.00;;;;7393945;19;20483;-75
2022/04/03 05:18:49;;;;;;;24.93;14.90;;;-3.30;1.00;-3.00;93924.00;;;;7393616;19;20140;-75
2022/04/03 05:21:16;;;;;;;23.00;15.33;;;-3.20;1.00;-3.00;93931.00;;;;7393477;19;20603;-81
2022/04/03 05:23:51;;;;;;;22.67;15.27;;;-3.20;1.00;-2.90;93959.00;;;;7388686;19;20161;-80
2022/04/03 05:26:19;;;;;;;21.80;14.90;;;-3.20;1.00;-2.80;93972.00;;;;7393667;19;20154;-76
2022/04/03 05:28:48;;;;;;;20.63;14.63;;;-3.10;1.00;-2.80;93971.00;;;;7394545;19;20182;-75
2022/04/03 05:31:24;;;;;;;23.20;14.43;;;-3.20;1.00;-2.60;93942.00;;;;7394757;19;20134;-76
2022/04/03 05:33:55;;;;;;;24.03;14.93;;;-3.20;1.00;-2.80;93962.00;;;;7394890;19;20525;-76
2022/04/03 05:36:29;;;;;;;21.17;13.50;;;-3.10;1.00;-2.70;93922.00;;;;7397257;19;20206;-76
2022/04/03 05:38:57;;;;;;;21.53;14.40;;;-3.10;1.00;-2.70;93970.00;;;;7397144;19;20168;-75
2022/04/03 05:41:24;;;;;;;22.23;13.83;;;-3.10;1.00;-2.70;93971.00;;;;7396375;19;20132;-76
2022/04/03 05:43:59;;;;;;;19.27;12.17;;;-3.10;1.00;-2.60;93914.00;;;;7395642;19;20151;-76
2022/04/03 05:46:29;;;;;;;21.67;12.50;;;-3.10;1.00;-2.70;93933.00;;;;7396099;19;20131;-75
2022/04/03 05:48:56;;;;;;;19.13;13.17;;;-3.00;1.00;-2.50;93940.00;;;;7395344;19;20164;-76
2022/04/03 05:51:30;;;;;;;18.00;12.87;;;-3.00;1.00;-2.50;93972.00;;;;7394567;19;20598;-76
2022/04/03 05:53:58;;;;;;;17.90;13.43;;;-3.00;1.00;-2.50;93946.00;;;;7397779;19;20498;-75
2022/04/03 05:56:27;;;;;;;14.87;11.03;;;-2.90;1.00;-2.40;93953.00;;;;7399072;19;20119;-75
2022/04/03 05:59:01;;;;;;;17.57;12.10;;;-2.90;99.90;-2.30;93981.00;;;;7395293;19;20155;-76
2022/04/03 06:01:29;;;;;;;16.57;11.50;;;-2.80;99.90;-2.30;93988.00;;;;7395225;19;20147;-76
2022/04/03 06:03:57;;;;;;;18.50;12.40;;;-2.70;99.90;-2.20;93989.00;;;;7395158;19;20629;-75
2022/04/03 06:06:31;;;;;;;17.27;11.40;;;-2.70;99.90;-2.30;93981.00;;;;7393490;19;20513;-76
2022/04/03 06:09:06;;;;;;;14.40;10.33;;;-2.60;99.90;-2.00;93943.00;;;;7393682;19;20171;-76
2022/04/03 06:11:47;;;;;;;13.37;10.20;;;-2.50;99.90;-2.00;93990.00;;;;7401236;19;20601;-77
2022/04/03 06:14:14;;;;;;;12.83;10.07;;;-2.40;99.90;-1.90;94000.00;;;;7403599;19;20132;-77
2022/04/03 06:16:48;;;;;;;16.63;10.70;;;-2.40;1.00;-2.10;94005.00;;;;7403521;19;20181;-76
2022/04/03 06:19:16;;;;;;;16.70;10.80;;;-2.40;1.00;-1.90;93985.00;;;;7402302;19;20147;-75
2022/04/03 06:21:44;;;;;;;11.87;9.33;;;-2.30;1.00;-1.70;93965.00;;;;7401209;19;20139;-76
2022/04/03 06:24:17;;;;;;;12.40;9.90;;;-2.20;1.00;-1.40;94008.00;;;;7401332;19;20116;-77
2022/04/03 06:26:45;;;;;;;12.87;9.13;;;-2.10;99.90;-1.40;94001.00;;;;7402242;19;20630;-76
2022/04/03 06:29:13;;;;;;;16.97;9.87;;;-2.10;99.90;-1.30;94010.00;;;;7402432;19;20152;-75
2022/04/03 06:31:46;;;;;;;13.57;8.97;;;-1.90;99.90;-1.20;94009.00;;;;7400538;19;20604;-76
2022/04/03 06:34:14;;;;;;;13.23;9.17;;;-1.80;99.90;-1.00;93993.00;;;;7403585;19;20125;-76
2022/04/03 06:36:41;;;;;;;13.27;8.50;;;-1.70;23.50;-1.00;93960.00;;;;7399706;19;20140;-76
2022/04/03 06:39:16;;;;;;;12.57;8.63;;;-1.60;47.80;-0.90;93998.00;;;;7399988;19;20196;-76
2022/04/03 06:41:43;;;;;;;11.27;8.80;;;-1.50;1.00;-0.80;93990.00;;;;7400603;19;20161;-76
2022/04/03 06:44:12;;;;;;;14.17;10.03;;;-1.50;1.00;-0.70;94005.00;;;;7399942;19;20120;-76
2022/04/03 06:46:45;;;;;;;16.87;9.60;;;-1.40;1.00;-0.50;94019.00;;;;7403545;19;20147;-75
2022/04/03 06:49:13;;;;;;;11.27;8.57;;;-1.30;1.00;-0.30;93985.00;;;;7397910;19;20136;-76
2022/04/03 06:51:40;;;;;;;11.80;8.10;;;-1.20;99.90;-0.50;94004.00;;;;7400404;19;20124;-76
2022/04/03 06:54:14;;;;;;;12.33;8.27;;;-1.20;99.90;-0.30;93994.00;;;;7400239;19;20135;-76
2022/04/03 06:56:42;;;;;;;11.00;8.60;;;-1.10;99.90;-0.40;94040.00;;;;7398912;19;20145;-76
2022/04/03 06:59:09;;;;;;;10.03;7.13;;;-1.00;99.90;-0.40;94030.00;;;;7404280;19;20136;-76
2022/04/03 07:01:48;;;;;;;8.73;7.37;;;-0.80;1.00;-0.30;93996.00;;;;7401737;19;20137;-76
2022/04/03 07:04:20;;;;;;;9.13;7.37;;;-0.90;1.00;0.10;93983.00;;;;7403241;19;20136;-78
2022/04/03 07:06:57;;;;;;;7.97;6.30;;;-0.80;1.00;-0.10;93979.00;;;;7405808;19;20121;-79
2022/04/03 07:09:38;;;;;;;14.83;7.97;;;-0.60;1.00;0.30;93976.00;;;;7403356;19;20183;-78
2022/04/03 07:12:14;;;;;;;9.60;7.37;;;-0.50;1.00;0.90;94031.00;;;;7404088;19;20140;-79
2022/04/03 07:14:41;;;;;;;11.03;6.77;;;-0.30;1.00;0.80;94022.00;;;;7406904;19;20137;-79
2022/04/03 07:17:09;;;;;;;9.20;7.03;;;-0.20;99.90;1.20;94025.00;;;;7402407;19;20135;-78
2022/04/03 07:19:44;;;;;;;9.13;6.20;;;0.00;99.90;1.10;94030.00;;;;7401493;19;20141;-78
2022/04/03 07:22:15;;;;;;;7.67;5.97;;;0.20;99.90;0.60;94023.00;;;;7397920;19;20505;-78
2022/04/03 07:24:42;;;;;;;17.13;11.10;;;0.00;99.90;0.90;94019.00;;;;7400043;19;20128;-78
2022/04/03 07:27:17;;;;;;;8.97;7.67;;;0.10;99.90;1.00;94035.00;;;;7400741;19;20628;-78
2022/04/03 07:29:45;;;;;;;9.17;7.50;;;0.30;32.80;2.10;94020.00;;;;7398494;19;20503;-79
2022/04/03 07:32:12;;;;;;;8.43;6.10;;;0.50;99.90;2.40;93990.00;;;;7399728;19;20137;-80
2022/04/03 07:34:46;;;;;;;8.20;5.70;;;0.60;30.30;3.10;94035.00;;;;7400579;19;20153;-78
2022/04/03 07:37:14;;;;;;;9.97;5.60;;;1.10;1.00;3.60;94008.00;;;;7399533;19;20452;-80
2022/04/03 07:39:43;;;;;;;7.80;5.10;;;1.30;1.00;2.70;94017.00;;;;7397120;19;20160;-78
2022/04/03 07:42:16;;;;;;;5.63;4.33;;;1.40;1.00;2.10;94033.00;;;;7398840;19;20618;-80
2022/04/03 07:44:44;;;;;;;7.13;4.70;;;1.30;1.00;2.10;94053.00;;;;7397879;19;20150;-78
2022/04/03 07:47:12;;;;;;;6.47;5.23;;;1.40;1.00;1.70;94054.00;;;;7396502;19;20525;-80
2022/04/03 07:49:48;;;;;;;7.80;5.23;;;1.40;99.90;3.00;94053.00;;;;7395087;19;20140;-80
2022/04/03 07:52:16;;;;;;;5.77;4.43;;;;;3.80;94056.00;;;;7396009;19;20625;-77
2022/04/03 07:54:45;;;;;;;8.37;5.97;;;;;4.20;94071.00;;;;7394486;19;20136;-81
2022/04/03 07:57:19;;;;;;;6.00;5.07;;;;;4.70;94078.00;;;;7397048;19;20649;-80
2022/04/03 07:59:48;;;;;;;33.37;18.00;;;;;3.70;94069.00;;;;7396639;19;20131;-77
2022/04/03 08:02:16;;;;;;;6.80;5.07;;;;;2.70;94078.00;;;;7397869;19;20564;-79
2022/04/03 08:04:51;;;;;;;6.50;4.73;;;;;2.70;94084.00;;;;7395589;19;20157;-80
2022/04/03 08:07:19;;;;;;;6.17;4.67;;;;;2.00;94090.00;;;;7396041;19;20604;-80
2022/04/03 08:09:47;;;;;;;6.63;4.93;;;;;2.00;94096.00;;;;7396588;19;20179;-79
2022/04/03 08:12:22;;;;;;;5.77;4.97;;;;;1.80;94091.00;;;;7394262;19;20147;-80
2022/04/03 08:14:53;;;;;;;6.50;5.00;;;;;1.30;94091.00;;;;7395468;19;20125;-80
2022/04/03 08:17:21;;;;;;;9.97;5.00;;;;;1.60;94089.00;;;;7397410;19;20487;-79
2022/04/03 08:19:55;;;;;;;8.57;4.43;;;;;1.10;94098.00;;;;7398812;19;20131;-79
2022/04/03 08:22:23;;;;;;;7.13;5.23;;;;;1.10;94099.00;;;;7395995;19;20616;-78
2022/04/03 08:24:51;;;;;;;7.37;5.10;;;;;0.80;94100.00;;;;7399715;19;20180;-78
2022/04/03 08:27:53;;;;;;;6.17;4.70;;;;;0.90;94099.00;;;;7397057;19;20141;-76
2022/04/03 08:30:28;;;;;;;6.33;4.80;;;;;1.10;94107.00;;;;7394655;19;20465;-76
2022/04/03 08:33:04;;;;;;;7.17;4.63;;;;;1.50;94115.00;;;;7393984;19;20599;-77
2022/04/03 08:35:33;;;;;;;8.63;4.83;;;;;1.60;94117.00;;;;7393307;19;20596;-75
2022/04/03 08:38:01;;;;;;;7.00;4.90;;;;;1.40;94113.00;;;;7393625;19;20135;-79
2022/04/03 08:40:36;;;;;;;6.93;5.20;;;;;1.50;94119.00;;;;7392120;19;20146;-78
2022/04/03 08:43:05;;;;;;;6.97;5.10;;;;;1.40;94120.00;;;;7393242;19;20129;-78
2022/04/03 08:45:33;;;;;;;5.67;4.87;;;;;1.20;94126.00;;;;7393557;19;20125;-79
2022/04/03 08:48:11;;;;;;;5.93;4.80;;;;;1.10;94125.00;;;;7395123;19;20124;-79
2022/04/03 08:50:39;;;;;;;6.80;4.87;;;;;0.90;94123.00;;;;7391011;19;20145;-78
2022/04/03 08:53:08;;;;;;;9.47;5.10;;;;;0.80;94119.00;;;;7394961;19;20469;-75
2022/04/03 08:55:43;;;;;;;6.90;4.97;;;;;1.50;94124.00;;;;7393165;19;20229;-76
2022/04/03 08:58:11;;;;;;;7.37;4.97;;;;;1.50;94126.00;;;;7395067;19;20125;-77
2022/04/03 09:00:38;;;;;;;5.63;4.80;;;;;1.40;94122.00;;;;7390794;19;20128;-76
2022/04/03 09:03:13;;;;;;;7.27;4.80;;;;;1.40;94126.00;;;;7392753;19;20144;-76
2022/04/03 09:05:43;;;;;;;7.03;5.30;;;;;0.90;94129.00;;;;7392155;19;20184;-77
2022/04/03 09:08:13;;;;;;;7.00;5.67;;;;;0.50;94130.00;;;;7392846;19;20162;-77
2022/04/03 09:11:07;;;;;;;10.37;5.57;;;;;0.80;94134.00;;;;7389614;19;20216;-77
2022/04/03 09:13:37;;;;;;;8.03;5.43;;;;;0.90;94137.00;;;;7392635;19;20137;-75
2022/04/03 09:16:12;;;;;;;9.43;5.63;;;;;0.90;94132.00;;;;7392805;19;20136;-75
2022/04/03 09:18:53;;;;;;;8.70;5.60;;;;;1.30;94127.00;;;;7393727;19;20133;-79
2022/04/03 09:21:28;;;;;;;6.57;4.90;;;;;2.80;94129.00;;;;7393491;19;20208;-78
2022/04/03 09:24:11;;;;;;;7.27;5.17;;;;;4.00;94136.00;;;;7391632;19;20149;-75
2022/04/03 09:26:58;;;;;;;6.67;5.33;;;;;4.40;94128.00;;;;7392549;19;20141;-75
2022/04/03 09:29:26;;;;;;;5.43;4.90;;;;;4.20;94130.00;;;;7391831;19;20192;-75
2022/04/03 09:32:02;;;;;;;9.97;6.73;;;;;4.40;94133.00;;;;7392498;19;20136;-75
2022/04/03 09:34:33;;;;;;;5.20;4.00;;;;;3.40;94127.00;;;;7392221;19;20121;-77
2022/04/03 09:37:07;;;;;;;6.70;5.03;;;;;3.20;94134.00;;;;7392485;19;20812;-75
2022/04/03 09:39:35;;;;;;;5.67;4.70;;;;;3.40;94143.00;;;;7392491;19;20200;-75
2022/04/03 09:42:11;;;;;;;5.47;4.13;;;;;3.00;94143.00;;;;7393072;19;20567;-75
2022/04/03 09:44:47;;;;;;;6.53;3.90;;;;;2.40;94149.00;;;;7394111;19;20490;-75
2022/04/03 09:47:20;;;;;;;6.73;4.57;;;;;2.30;94142.00;;;;7400923;19;20137;-76
2022/04/03 09:50:05;;;;;;;7.77;4.87;;;;;3.20;94148.00;;;;7399577;19;20139;-78
2022/04/03 09:52:35;;;;;;;5.60;4.23;;;;;2.70;94154.00;;;;7398287;19;20133;-76
2022/04/03 09:55:24;;;;;;;4.83;4.33;;;;;2.80;94153.00;;;;7395730;19;20610;-76
2022/04/03 09:58:05;;;;;;;5.83;4.63;;;;;3.10;94145.00;;;;7395820;19;20448;-76
2022/04/03 10:00:45;;;;;;;6.53;4.60;;;;;3.40;94158.00;;;;7397498;19;20154;-77
2022/04/03 10:03:14;;;;;;;8.47;4.80;;;;;3.80;94151.00;;;;7396153;19;20132;-76
2022/04/03 10:05:50;;;;;;;6.67;4.50;;;;;3.90;94148.00;;;;7396898;19;20143;-76
2022/04/03 10:08:20;;;;;;;6.10;4.77;;;;;3.90;94155.00;;;;7396590;19;20143;-77
2022/04/03 10:10:49;;;;;;;5.97;4.23;;;;;3.20;94157.00;;;;7393254;19;20540;-76
2022/04/03 10:13:23;;;;;;;4.67;3.67;;;;;2.90;94160.00;;;;7395868;19;20154;-76
2022/04/03 10:15:52;;;;;;;4.17;3.73;;;;;2.70;94158.00;;;;7395870;19;20239;-77
2022/04/03 10:18:20;;;;;;;7.17;3.93;;;;;2.80;94152.00;;;;7398135;19;20153;-77
2022/04/03 10:20:54;;;;;;;6.23;3.90;;;;;3.00;94159.00;;;;7397881;19;20145;-77
2022/04/03 10:23:24;;;;;;;6.97;4.07;;;;;2.80;94154.00;;;;7397132;19;20129;-76
2022/04/03 10:25:54;;;;;;;6.00;3.77;;;;;2.80;94153.00;;;;7397129;19;20148;-77
2022/04/03 10:28:29;;;;;;;5.17;4.00;;;;;3.50;94149.00;;;;7400587;19;20124;-77
2022/04/03 10:31:08;;;;;;;5.37;4.27;;;;;3.80;94150.00;;;;7394941;19;20236;-78
2022/04/03 10:33:48;;;;;;;5.70;4.30;;;;;4.40;94142.00;;;;7396680;19;20487;-78
2022/04/03 10:36:23;;;;;;;4.90;4.43;;;;;5.50;94114.00;;;;7395101;19;20198;-77
2022/04/03 10:39:08;;;;;;;33.07;21.90;;;5.30;1.00;10.60;94130.00;;;;7394863;19;20148;-79
2022/04/03 10:41:43;;;;;;;5.00;4.10;;;5.80;1.00;10.20;94136.00;;;;7395578;19;20157;-79
2022/04/03 10:44:32;;;;;;;5.90;3.73;;;7.50;1.00;10.10;94108.00;;;;7392892;19;20155;-79
2022/04/03 10:47:03;;;;;;;5.10;3.20;;;8.30;1.00;10.50;94083.00;;;;7393914;19;20611;-80
2022/04/03 10:49:47;;;;;;;4.30;3.40;;;8.60;1.00;12.40;94093.00;;;;7394309;19;20141;-78
2022/04/03 10:52:57;;;;;;;3.63;3.10;;;9.50;1.00;10.60;94106.00;;;;7393915;19;20208;-79
2022/04/03 10:55:35;;;;;;;5.93;3.80;;;9.40;99.90;9.20;94118.00;;;;7392268;19;20137;-78
2022/04/03 10:58:16;;;;;;;4.90;3.60;;;8.50;99.90;7.30;94140.00;;;;7392134;19;20580;-80
2022/04/03 11:00:49;;;;;;;4.87;3.87;;;7.70;99.90;6.80;94145.00;;;;7391919;19;20137;-78
2022/04/03 11:03:32;;;;;;;3.70;3.40;;;6.90;99.90;4.70;94150.00;;;;7391591;19;20125;-79
2022/04/03 11:06:23;;;;;;;6.50;3.57;;;6.30;1.00;4.40;94122.00;;;;7391732;19;20144;-78
2022/04/03 11:09:27;;;;;;;4.53;4.13;;;5.50;1.00;4.30;94136.00;;;;7390415;19;20570;-77
2022/04/03 11:12:01;;;;;;;5.03;3.60;;;4.80;1.00;3.40;94161.00;;;;7390512;19;20129;-77
2022/04/03 11:14:57;;;;;;;4.60;3.73;;;4.10;1.00;3.00;94160.00;;;;7392728;19;20137;-77
2022/04/03 11:17:52;;;;;;;6.20;4.00;;;;;2.50;94166.00;;;;7395047;19;20599;-78
2022/04/03 11:20:42;;;;;;;5.80;3.63;;;2.50;1.00;1.90;94126.00;;;;7397180;19;20149;-78
2022/04/03 11:23:16;;;;;;;5.83;4.27;;;1.80;1.00;1.40;94165.00;;;;7394055;19;20140;-77
2022/04/03 11:25:50;;;;;;;5.57;4.47;;;1.30;1.00;1.20;94106.00;;;;7395954;19;20125;-78
2022/04/03 11:28:20;;;;;;;5.40;4.50;;;1.00;62.60;1.00;94145.00;;;;7395993;19;20131;-76
2022/04/03 11:30:49;;;;;;;4.93;4.37;;;0.70;99.90;0.90;94103.00;;;;7394860;19;20129;-77
2022/04/03 11:33:23;;;;;;;4.57;4.03;;;0.70;99.90;1.20;94155.00;;;;7394919;19;20128;-75